sensor_id;sensor_type;location;lat;lon;timestamp;temperature;humidity
57833;DHT22;43667;53.036;6.740;2023-02-15T00:01:38;1.90;99.90
57833;DHT22;43667;53.036;6.740;2023-02-15T00:04:05;2.00;99.90
57833;DHT22;43667;53.036;6.740;2023-02-15T00:06:32;1.90;99.90
57833;DHT22;43667;53.036;6.740;2023-02-15T00:08:58;2.00;99.90
57833;DHT22;43667;53.036;6.740;2023-02-15T00:11:24;2.00;99.90
57833;DHT22;43667;53.036;6.740;2023-02-15T00:14:22;2.00;99.90
57833;DHT22;43667;53.036;6.740;2023-02-15T00:16:49;2.00;99.90
57833;DHT22;43667;53.036;6.740;2023-02-15T00:19:17;2.00;99.90
57833;DHT22;43667;53.036;6.740;2023-02-15T00:21:43;2.00;99.90
57833;DHT22;43667;53.036;6.740;2023-02-15T00:24:10;1.90;99.90
57833;DHT22;43667;53.036;6.740;2023-02-15T00:26:38;2.00;99.90
57833;DHT22;43667;53.036;6.740;2023-02-15T00:29:04;1.90;99.90
57833;DHT22;43667;53.036;6.740;2023-02-15T00:31:31;1.90;99.90
57833;DHT22;43667;53.036;6.740;2023-02-15T00:34:11;1.90;99.90
57833;DHT22;43667;53.036;6.740;2023-02-15T00:36:38;1.90;99.90
57833;DHT22;43667;53.036;6.740;2023-02-15T00:39:03;1.80;99.90
57833;DHT22;43667;53.036;6.740;2023-02-15T00:41:30;1.80;99.90
57833;DHT22;43667;53.036;6.740;2023-02-15T00:43:56;1.80;99.90
57833;DHT22;43667;53.036;6.740;2023-02-15T00:46:22;1.80;99.90
57833;DHT22;43667;53.036;6.740;2023-02-15T00:48:47;1.80;99.90
57833;DHT22;43667;53.036;6.740;2023-02-15T00:51:13;1.70;99.90
57833;DHT22;43667;53.036;6.740;2023-02-15T00:53:39;1.70;99.90
57833;DHT22;43667;53.036;6.740;2023-02-15T00:56:05;1.70;99.90
57833;DHT22;43667;53.036;6.740;2023-02-15T00:58:30;1.60;99.90
57833;DHT22;43667;53.036;6.740;2023-02-15T01:01:03;1.60;99.90
57833;DHT22;43667;53.036;6.740;2023-02-15T01:03:30;1.60;99.90
57833;DHT22;43667;53.036;6.740;2023-02-15T01:05:56;1.50;99.90
57833;DHT22;43667;53.036;6.740;2023-02-15T01:08:21;1.50;99.90
57833;DHT22;43667;53.036;6.740;2023-02-15T01:10:47;1.50;99.90
57833;DHT22;43667;53.036;6.740;2023-02-15T01:13:14;1.50;99.90
57833;DHT22;43667;53.036;6.740;2023-02-15T01:15:40;1.50;99.90
57833;DHT22;43667;53.036;6.740;2023-02-15T01:18:06;1.50;99.90
57833;DHT22;43667;53.036;6.740;2023-02-15T01:20:34;1.50;99.90
57833;DHT22;43667;53.036;6.740;2023-02-15T01:23:00;1.40;99.90
57833;DHT22;43667;53.036;6.740;2023-02-15T01:25:26;1.40;99.90
57833;DHT22;43667;53.036;6.740;2023-02-15T01:27:51;1.40;99.90
57833;DHT22;43667;53.036;6.740;2023-02-15T01:30:17;1.40;99.90
57833;DHT22;43667;53.036;6.740;2023-02-15T01:32:43;1.40;99.90
57833;DHT22;43667;53.036;6.740;2023-02-15T01:35:10;1.30;99.90
57833;DHT22;43667;53.036;6.740;2023-02-15T01:37:36;1.40;99.90
57833;DHT22;43667;53.036;6.740;2023-02-15T01:40:05;1.30;99.90
57833;DHT22;43667;53.036;6.740;2023-02-15T01:42:30;1.30;99.90
57833;DHT22;43667;53.036;6.740;2023-02-15T01:45:16;1.30;99.90
57833;DHT22;43667;53.036;6.740;2023-02-15T01:48:24;1.30;99.90
57833;DHT22;43667;53.036;6.740;2023-02-15T01:50:55;1.20;99.90
57833;DHT22;43667;53.036;6.740;2023-02-15T01:53:24;1.30;99.90
57833;DHT22;43667;53.036;6.740;2023-02-15T01:55:58;1.30;99.90
57833;DHT22;43667;53.036;6.740;2023-02-15T01:58:26;1.30;99.90
57833;DHT22;43667;53.036;6.740;2023-02-15T02:00:53;1.30;99.90
57833;DHT22;43667;53.036;6.740;2023-02-15T02:03:29;1.30;99.90
57833;DHT22;43667;53.036;6.740;2023-02-15T02:05:56;1.30;99.90
57833;DHT22;43667;53.036;6.740;2023-02-15T02:08:21;1.30;99.90
57833;DHT22;43667;53.036;6.740;2023-02-15T02:10:47;1.30;99.90
57833;DHT22;43667;53.036;6.740;2023-02-15T02:13:12;1.40;99.90
57833;DHT22;43667;53.036;6.740;2023-02-15T02:15:47;1.40;99.90
57833;DHT22;43667;53.036;6.740;2023-02-15T02:21:45;1.40;99.90
57833;DHT22;43667;53.036;6.740;2023-02-15T02:27:39;1.40;99.90
57833;DHT22;43667;53.036;6.740;2023-02-15T02:33:07;1.40;99.90
57833;DHT22;43667;53.036;6.740;2023-02-15T02:35:52;1.50;99.90
57833;DHT22;43667;53.036;6.740;2023-02-15T02:41:25;1.50;99.90
57833;DHT22;43667;53.036;6.740;2023-02-15T02:46:58;1.50;99.90
57833;DHT22;43667;53.036;6.740;2023-02-15T02:49:43;1.50;99.90
57833;DHT22;43667;53.036;6.740;2023-02-15T02:52:42;1.50;99.90
57833;DHT22;43667;53.036;6.740;2023-02-15T03:03:14;1.60;99.90
57833;DHT22;43667;53.036;6.740;2023-02-15T03:05:44;1.60;99.90
57833;DHT22;43667;53.036;6.740;2023-02-15T03:08:11;1.60;99.90
57833;DHT22;43667;53.036;6.740;2023-02-15T03:10:38;1.60;99.90
57833;DHT22;43667;53.036;6.740;2023-02-15T03:13:05;1.60;99.90
57833;DHT22;43667;53.036;6.740;2023-02-15T03:15:38;1.60;99.90
57833;DHT22;43667;53.036;6.740;2023-02-15T03:18:26;1.60;99.90
57833;DHT22;43667;53.036;6.740;2023-02-15T03:20:55;1.50;99.90
57833;DHT22;43667;53.036;6.740;2023-02-15T03:23:25;1.50;99.90
57833;DHT22;43667;53.036;6.740;2023-02-15T03:25:57;1.50;99.90
57833;DHT22;43667;53.036;6.740;2023-02-15T03:28:33;1.50;99.90
57833;DHT22;43667;53.036;6.740;2023-02-15T03:31:02;1.50;99.90
57833;DHT22;43667;53.036;6.740;2023-02-15T03:33:29;1.50;99.90
57833;DHT22;43667;53.036;6.740;2023-02-15T03:36:16;1.50;99.90
57833;DHT22;43667;53.036;6.740;2023-02-15T03:41:39;1.50;99.90
57833;DHT22;43667;53.036;6.740;2023-02-15T03:44:16;1.50;99.90
57833;DHT22;43667;53.036;6.740;2023-02-15T03:49:39;1.50;99.90
57833;DHT22;43667;53.036;6.740;2023-02-15T03:52:07;1.50;99.90
57833;DHT22;43667;53.036;6.740;2023-02-15T03:54:35;1.50;99.90
57833;DHT22;43667;53.036;6.740;2023-02-15T03:57:27;1.40;99.90
57833;DHT22;43667;53.036;6.740;2023-02-15T04:00:16;1.30;99.90
57833;DHT22;43667;53.036;6.740;2023-02-15T04:05:42;1.20;99.90
57833;DHT22;43667;53.036;6.740;2023-02-15T04:08:08;1.20;99.90
57833;DHT22;43667;53.036;6.740;2023-02-15T04:10:34;1.10;99.90
57833;DHT22;43667;53.036;6.740;2023-02-15T04:13:22;1.00;99.90
57833;DHT22;43667;53.036;6.740;2023-02-15T04:15:48;1.00;99.90
57833;DHT22;43667;53.036;6.740;2023-02-15T04:18:38;0.90;99.90
57833;DHT22;43667;53.036;6.740;2023-02-15T04:21:24;0.90;99.90
57833;DHT22;43667;53.036;6.740;2023-02-15T04:24:09;0.90;99.90
57833;DHT22;43667;53.036;6.740;2023-02-15T04:26:54;0.80;99.90
57833;DHT22;43667;53.036;6.740;2023-02-15T04:29:22;0.80;99.90
57833;DHT22;43667;53.036;6.740;2023-02-15T04:31:48;0.70;99.90
57833;DHT22;43667;53.036;6.740;2023-02-15T04:34:14;0.70;99.90
57833;DHT22;43667;53.036;6.740;2023-02-15T04:36:40;0.70;99.90
57833;DHT22;43667;53.036;6.740;2023-02-15T04:39:06;0.60;99.90
57833;DHT22;43667;53.036;6.740;2023-02-15T04:41:32;0.60;99.90
57833;DHT22;43667;53.036;6.740;2023-02-15T04:43:58;0.50;99.90
57833;DHT22;43667;53.036;6.740;2023-02-15T04:46:26;0.50;99.90
57833;DHT22;43667;53.036;6.740;2023-02-15T04:48:52;0.50;99.90
57833;DHT22;43667;53.036;6.740;2023-02-15T04:51:18;0.50;99.90
57833;DHT22;43667;53.036;6.740;2023-02-15T04:53:43;0.50;99.90
57833;DHT22;43667;53.036;6.740;2023-02-15T04:56:09;0.50;99.90
57833;DHT22;43667;53.036;6.740;2023-02-15T04:58:34;0.60;99.90
57833;DHT22;43667;53.036;6.740;2023-02-15T05:01:00;0.60;99.90
57833;DHT22;43667;53.036;6.740;2023-02-15T05:03:26;0.60;99.90
57833;DHT22;43667;53.036;6.740;2023-02-15T05:05:52;0.60;99.90
57833;DHT22;43667;53.036;6.740;2023-02-15T05:08:17;0.70;99.90
57833;DHT22;43667;53.036;6.740;2023-02-15T05:10:43;0.70;99.90
57833;DHT22;43667;53.036;6.740;2023-02-15T05:13:08;0.70;99.90
57833;DHT22;43667;53.036;6.740;2023-02-15T05:15:34;0.70;99.90
57833;DHT22;43667;53.036;6.740;2023-02-15T05:18:00;0.70;99.90
57833;DHT22;43667;53.036;6.740;2023-02-15T05:20:27;0.70;99.90
57833;DHT22;43667;53.036;6.740;2023-02-15T05:22:55;0.70;99.90
57833;DHT22;43667;53.036;6.740;2023-02-15T05:25:21;0.70;99.90
57833;DHT22;43667;53.036;6.740;2023-02-15T05:28:07;0.70;99.90
57833;DHT22;43667;53.036;6.740;2023-02-15T05:31:01;0.70;99.90
57833;DHT22;43667;53.036;6.740;2023-02-15T05:33:27;0.70;99.90
57833;DHT22;43667;53.036;6.740;2023-02-15T05:35:52;0.70;99.90
57833;DHT22;43667;53.036;6.740;2023-02-15T05:38:18;0.70;99.90
57833;DHT22;43667;53.036;6.740;2023-02-15T05:40:44;0.70;99.90
57833;DHT22;43667;53.036;6.740;2023-02-15T05:43:09;0.70;99.90
57833;DHT22;43667;53.036;6.740;2023-02-15T05:45:35;0.70;99.90
57833;DHT22;43667;53.036;6.740;2023-02-15T05:48:00;0.70;99.90
57833;DHT22;43667;53.036;6.740;2023-02-15T05:50:26;0.70;99.90
57833;DHT22;43667;53.036;6.740;2023-02-15T05:52:52;0.60;99.90
57833;DHT22;43667;53.036;6.740;2023-02-15T05:55:17;0.70;99.90
57833;DHT22;43667;53.036;6.740;2023-02-15T05:57:43;0.70;99.90
57833;DHT22;43667;53.036;6.740;2023-02-15T06:00:09;0.70;99.90
57833;DHT22;43667;53.036;6.740;2023-02-15T06:02:36;0.70;99.90
57833;DHT22;43667;53.036;6.740;2023-02-15T06:05:04;0.70;99.90
57833;DHT22;43667;53.036;6.740;2023-02-15T06:07:30;0.70;99.90
57833;DHT22;43667;53.036;6.740;2023-02-15T06:09:55;0.70;99.90
57833;DHT22;43667;53.036;6.740;2023-02-15T06:12:21;0.70;99.90
57833;DHT22;43667;53.036;6.740;2023-02-15T06:14:46;0.70;99.90
57833;DHT22;43667;53.036;6.740;2023-02-15T06:17:12;0.80;99.90
57833;DHT22;43667;53.036;6.740;2023-02-15T06:19:37;0.80;99.90
57833;DHT22;43667;53.036;6.740;2023-02-15T06:22:03;0.80;99.90
57833;DHT22;43667;53.036;6.740;2023-02-15T06:24:29;0.80;99.90
57833;DHT22;43667;53.036;6.740;2023-02-15T06:26:54;0.80;99.90
57833;DHT22;43667;53.036;6.740;2023-02-15T06:29:20;0.80;99.90
57833;DHT22;43667;53.036;6.740;2023-02-15T06:31:45;0.90;99.90
57833;DHT22;43667;53.036;6.740;2023-02-15T06:34:11;0.90;99.90
57833;DHT22;43667;53.036;6.740;2023-02-15T06:36:37;0.90;99.90
57833;DHT22;43667;53.036;6.740;2023-02-15T06:39:03;0.90;99.90
57833;DHT22;43667;53.036;6.740;2023-02-15T06:41:29;1.00;99.90
57833;DHT22;43667;53.036;6.740;2023-02-15T06:43:55;0.90;99.90
57833;DHT22;43667;53.036;6.740;2023-02-15T06:46:20;0.90;99.90
57833;DHT22;43667;53.036;6.740;2023-02-15T06:48:46;1.00;99.90
57833;DHT22;43667;53.036;6.740;2023-02-15T06:51:11;1.00;99.90
57833;DHT22;43667;53.036;6.740;2023-02-15T06:53:37;1.00;99.90
57833;DHT22;43667;53.036;6.740;2023-02-15T06:56:04;1.00;99.90
57833;DHT22;43667;53.036;6.740;2023-02-15T06:58:43;1.00;99.90
57833;DHT22;43667;53.036;6.740;2023-02-15T07:01:11;1.00;99.90
57833;DHT22;43667;53.036;6.740;2023-02-15T07:03:37;1.00;99.90
57833;DHT22;43667;53.036;6.740;2023-02-15T07:06:04;1.00;99.90
57833;DHT22;43667;53.036;6.740;2023-02-15T07:08:34;1.00;99.90
57833;DHT22;43667;53.036;6.740;2023-02-15T07:10:59;1.00;99.90
57833;DHT22;43667;53.036;6.740;2023-02-15T07:13:46;1.00;99.90
57833;DHT22;43667;53.036;6.740;2023-02-15T07:16:11;1.00;99.90
57833;DHT22;43667;53.036;6.740;2023-02-15T07:18:38;1.00;99.90
57833;DHT22;43667;53.036;6.740;2023-02-15T07:21:03;1.00;99.90
57833;DHT22;43667;53.036;6.740;2023-02-15T07:23:29;1.00;99.90
57833;DHT22;43667;53.036;6.740;2023-02-15T07:25:59;1.00;99.90
57833;DHT22;43667;53.036;6.740;2023-02-15T07:28:25;1.10;99.90
57833;DHT22;43667;53.036;6.740;2023-02-15T07:30:51;1.10;99.90
57833;DHT22;43667;53.036;6.740;2023-02-15T07:33:16;1.10;99.90
57833;DHT22;43667;53.036;6.740;2023-02-15T07:35:58;1.10;99.90
57833;DHT22;43667;53.036;6.740;2023-02-15T07:38:26;1.10;99.90
57833;DHT22;43667;53.036;6.740;2023-02-15T07:40:57;1.10;99.90
57833;DHT22;43667;53.036;6.740;2023-02-15T07:43:22;1.20;99.90
57833;DHT22;43667;53.036;6.740;2023-02-15T07:45:48;1.20;99.90
57833;DHT22;43667;53.036;6.740;2023-02-15T07:48:13;1.30;99.90
57833;DHT22;43667;53.036;6.740;2023-02-15T07:50:39;1.30;99.90
57833;DHT22;43667;53.036;6.740;2023-02-15T07:53:04;1.30;99.90
57833;DHT22;43667;53.036;6.740;2023-02-15T07:55:30;1.40;99.90
57833;DHT22;43667;53.036;6.740;2023-02-15T07:57:56;1.40;99.90
57833;DHT22;43667;53.036;6.740;2023-02-15T08:00:22;1.50;99.90
57833;DHT22;43667;53.036;6.740;2023-02-15T08:02:56;1.60;99.90
57833;DHT22;43667;53.036;6.740;2023-02-15T08:05:41;1.70;99.90
57833;DHT22;43667;53.036;6.740;2023-02-15T08:08:08;1.80;99.90
57833;DHT22;43667;53.036;6.740;2023-02-15T08:10:35;1.80;99.90
57833;DHT22;43667;53.036;6.740;2023-02-15T08:13:19;1.90;99.90
57833;DHT22;43667;53.036;6.740;2023-02-15T08:15:49;2.00;99.90
57833;DHT22;43667;53.036;6.740;2023-02-15T08:18:14;2.00;99.90
57833;DHT22;43667;53.036;6.740;2023-02-15T08:20:40;2.10;99.90
57833;DHT22;43667;53.036;6.740;2023-02-15T08:23:05;2.10;99.90
57833;DHT22;43667;53.036;6.740;2023-02-15T08:25:31;2.30;99.90
57833;DHT22;43667;53.036;6.740;2023-02-15T08:27:56;2.40;99.90
57833;DHT22;43667;53.036;6.740;2023-02-15T08:30:22;2.40;99.90
57833;DHT22;43667;53.036;6.740;2023-02-15T08:32:48;2.60;99.90
57833;DHT22;43667;53.036;6.740;2023-02-15T08:35:13;2.70;99.90
57833;DHT22;43667;53.036;6.740;2023-02-15T08:37:39;2.80;99.90
57833;DHT22;43667;53.036;6.740;2023-02-15T08:40:05;2.90;99.90
57833;DHT22;43667;53.036;6.740;2023-02-15T08:42:33;3.00;99.90
57833;DHT22;43667;53.036;6.740;2023-02-15T08:44:58;3.00;99.90
57833;DHT22;43667;53.036;6.740;2023-02-15T08:47:24;3.10;99.90
57833;DHT22;43667;53.036;6.740;2023-02-15T08:49:49;3.20;99.90
57833;DHT22;43667;53.036;6.740;2023-02-15T08:52:16;3.30;99.90
57833;DHT22;43667;53.036;6.740;2023-02-15T08:54:42;3.30;99.90
57833;DHT22;43667;53.036;6.740;2023-02-15T08:57:08;3.40;99.90
57833;DHT22;43667;53.036;6.740;2023-02-15T08:59:34;3.40;99.90
57833;DHT22;43667;53.036;6.740;2023-02-15T09:02:01;3.50;99.90
57833;DHT22;43667;53.036;6.740;2023-02-15T09:04:26;3.70;99.90
57833;DHT22;43667;53.036;6.740;2023-02-15T09:06:52;3.80;99.90
57833;DHT22;43667;53.036;6.740;2023-02-15T09:09:18;3.90;99.90
57833;DHT22;43667;53.036;6.740;2023-02-15T09:11:47;4.00;99.90
57833;DHT22;43667;53.036;6.740;2023-02-15T09:14:15;4.20;99.90
57833;DHT22;43667;53.036;6.740;2023-02-15T09:16:43;4.30;99.90
57833;DHT22;43667;53.036;6.740;2023-02-15T09:19:14;4.40;99.90
57833;DHT22;43667;53.036;6.740;2023-02-15T09:21:40;4.50;99.90
57833;DHT22;43667;53.036;6.740;2023-02-15T09:24:11;4.60;99.90
57833;DHT22;43667;53.036;6.740;2023-02-15T09:26:39;4.70;99.90
57833;DHT22;43667;53.036;6.740;2023-02-15T09:29:09;4.80;99.90
57833;DHT22;43667;53.036;6.740;2023-02-15T09:31:41;4.90;99.90
57833;DHT22;43667;53.036;6.740;2023-02-15T09:34:10;4.90;99.90
57833;DHT22;43667;53.036;6.740;2023-02-15T09:36:38;5.00;99.90
57833;DHT22;43667;53.036;6.740;2023-02-15T09:39:15;5.10;99.90
57833;DHT22;43667;53.036;6.740;2023-02-15T09:44:53;5.40;99.90
57833;DHT22;43667;53.036;6.740;2023-02-15T09:50:44;5.70;99.90
57833;DHT22;43667;53.036;6.740;2023-02-15T09:56:39;6.20;99.90
57833;DHT22;43667;53.036;6.740;2023-02-15T09:59:27;6.50;99.90
57833;DHT22;43667;53.036;6.740;2023-02-15T10:04:34;6.90;99.90
57833;DHT22;43667;53.036;6.740;2023-02-15T10:07:13;7.00;99.90
57833;DHT22;43667;53.036;6.740;2023-02-15T10:10:18;7.10;99.90
57833;DHT22;43667;53.036;6.740;2023-02-15T10:18:10;7.30;99.90
57833;DHT22;43667;53.036;6.740;2023-02-15T10:26:18;7.40;99.90
57833;DHT22;43667;53.036;6.740;2023-02-15T10:28:53;7.50;99.90
57833;DHT22;43667;53.036;6.740;2023-02-15T10:31:26;7.50;99.90
57833;DHT22;43667;53.036;6.740;2023-02-15T10:34:17;7.60;99.90
57833;DHT22;43667;53.036;6.740;2023-02-15T10:37:02;7.60;99.90
57833;DHT22;43667;53.036;6.740;2023-02-15T10:42:20;7.60;99.90
57833;DHT22;43667;53.036;6.740;2023-02-15T10:45:06;7.70;99.90
57833;DHT22;43667;53.036;6.740;2023-02-15T10:47:49;7.80;99.90
57833;DHT22;43667;53.036;6.740;2023-02-15T10:53:21;7.90;99.90
57833;DHT22;43667;53.036;6.740;2023-02-15T10:59:04;8.00;99.90
57833;DHT22;43667;53.036;6.740;2023-02-15T11:03:48;8.10;99.90
57833;DHT22;43667;53.036;6.740;2023-02-15T11:06:18;8.20;99.90
57833;DHT22;43667;53.036;6.740;2023-02-15T11:08:54;8.20;99.90
57833;DHT22;43667;53.036;6.740;2023-02-15T11:13:58;8.30;99.90
57833;DHT22;43667;53.036;6.740;2023-02-15T11:16:29;8.40;99.90
57833;DHT22;43667;53.036;6.740;2023-02-15T11:19:05;8.50;99.90
57833;DHT22;43667;53.036;6.740;2023-02-15T11:21:37;8.50;99.90
57833;DHT22;43667;53.036;6.740;2023-02-15T11:24:12;8.60;99.90
57833;DHT22;43667;53.036;6.740;2023-02-15T11:26:43;8.70;99.90
57833;DHT22;43667;53.036;6.740;2023-02-15T11:29:21;8.90;99.90
57833;DHT22;43667;53.036;6.740;2023-02-15T11:32:02;9.00;99.90
57833;DHT22;43667;53.036;6.740;2023-02-15T11:34:35;9.20;99.90
57833;DHT22;43667;53.036;6.740;2023-02-15T11:37:12;9.30;99.90
57833;DHT22;43667;53.036;6.740;2023-02-15T11:39:40;9.40;99.90
57833;DHT22;43667;53.036;6.740;2023-02-15T11:42:13;9.50;99.90
57833;DHT22;43667;53.036;6.740;2023-02-15T11:44:47;9.60;99.90
57833;DHT22;43667;53.036;6.740;2023-02-15T11:47:14;9.80;99.90
57833;DHT22;43667;53.036;6.740;2023-02-15T11:49:40;9.90;99.90
57833;DHT22;43667;53.036;6.740;2023-02-15T11:52:08;10.00;99.90
57833;DHT22;43667;53.036;6.740;2023-02-15T11:54:38;10.10;99.90
57833;DHT22;43667;53.036;6.740;2023-02-15T11:57:14;10.20;99.90
57833;DHT22;43667;53.036;6.740;2023-02-15T11:59:46;10.30;99.90
57833;DHT22;43667;53.036;6.740;2023-02-15T12:02:17;10.40;99.90
57833;DHT22;43667;53.036;6.740;2023-02-15T12:04:48;10.40;99.90
57833;DHT22;43667;53.036;6.740;2023-02-15T12:07:28;10.50;99.90
57833;DHT22;43667;53.036;6.740;2023-02-15T12:12:46;10.80;99.90
57833;DHT22;43667;53.036;6.740;2023-02-15T12:17:52;11.10;99.90
57833;DHT22;43667;53.036;6.740;2023-02-15T12:22:53;11.20;99.90
57833;DHT22;43667;53.036;6.740;2023-02-15T12:26:14;11.20;99.90
57833;DHT22;43667;53.036;6.740;2023-02-15T12:30:50;11.20;99.90
57833;DHT22;43667;53.036;6.740;2023-02-15T12:33:26;11.20;99.90
57833;DHT22;43667;53.036;6.740;2023-02-15T12:36:18;11.30;99.90
57833;DHT22;43667;53.036;6.740;2023-02-15T12:41:36;11.50;99.90
57833;DHT22;43667;53.036;6.740;2023-02-15T12:44:17;11.60;99.90
57833;DHT22;43667;53.036;6.740;2023-02-15T12:47:04;11.60;99.90
57833;DHT22;43667;53.036;6.740;2023-02-15T12:49:35;11.60;99.90
57833;DHT22;43667;53.036;6.740;2023-02-15T12:52:03;11.70;99.90
57833;DHT22;43667;53.036;6.740;2023-02-15T12:54:40;11.70;99.90
57833;DHT22;43667;53.036;6.740;2023-02-15T12:57:22;11.80;99.90
57833;DHT22;43667;53.036;6.740;2023-02-15T12:59:52;11.80;99.90
57833;DHT22;43667;53.036;6.740;2023-02-15T13:05:14;12.00;99.90
57833;DHT22;43667;53.036;6.740;2023-02-15T13:07:50;12.00;99.90
57833;DHT22;43667;53.036;6.740;2023-02-15T13:10:36;12.10;99.90
57833;DHT22;43667;53.036;6.740;2023-02-15T13:13:17;12.20;99.90
57833;DHT22;43667;53.036;6.740;2023-02-15T13:15:50;12.20;99.90
57833;DHT22;43667;53.036;6.740;2023-02-15T13:18:20;12.10;99.90
57833;DHT22;43667;53.036;6.740;2023-02-15T13:20:50;12.10;99.90
57833;DHT22;43667;53.036;6.740;2023-02-15T13:23:26;12.10;99.90
57833;DHT22;43667;53.036;6.740;2023-02-15T13:25:55;12.10;99.90
57833;DHT22;43667;53.036;6.740;2023-02-15T13:28:37;12.10;99.90
57833;DHT22;43667;53.036;6.740;2023-02-15T13:31:15;12.10;99.90
57833;DHT22;43667;53.036;6.740;2023-02-15T13:33:46;12.10;99.90
57833;DHT22;43667;53.036;6.740;2023-02-15T13:36:23;12.10;99.90
57833;DHT22;43667;53.036;6.740;2023-02-15T13:41:56;12.10;99.90
57833;DHT22;43667;53.036;6.740;2023-02-15T13:52:48;12.10;99.90
57833;DHT22;43667;53.036;6.740;2023-02-15T13:55:50;12.10;99.90
57833;DHT22;43667;53.036;6.740;2023-02-15T13:58:51;12.00;99.90
57833;DHT22;43667;53.036;6.740;2023-02-15T14:04:22;12.00;99.90
57833;DHT22;43667;53.036;6.740;2023-02-15T14:09:33;12.00;99.90
57833;DHT22;43667;53.036;6.740;2023-02-15T14:12:35;12.00;99.90
57833;DHT22;43667;53.036;6.740;2023-02-15T14:15:26;12.00;99.90
57833;DHT22;43667;53.036;6.740;2023-02-15T14:18:18;11.90;99.90
57833;DHT22;43667;53.036;6.740;2023-02-15T14:20:56;11.90;99.90
57833;DHT22;43667;53.036;6.740;2023-02-15T14:26:21;11.90;99.90
57833;DHT22;43667;53.036;6.740;2023-02-15T14:29:02;11.90;99.90
57833;DHT22;43667;53.036;6.740;2023-02-15T14:31:38;11.80;99.90
57833;DHT22;43667;53.036;6.740;2023-02-15T14:34:24;11.80;99.90
57833;DHT22;43667;53.036;6.740;2023-02-15T14:36:53;11.80;99.90
57833;DHT22;43667;53.036;6.740;2023-02-15T14:44:45;11.70;99.90
57833;DHT22;43667;53.036;6.740;2023-02-15T14:47:25;11.60;99.90
57833;DHT22;43667;53.036;6.740;2023-02-15T14:49:52;11.60;99.90
57833;DHT22;43667;53.036;6.740;2023-02-15T14:52:19;11.50;99.90
57833;DHT22;43667;53.036;6.740;2023-02-15T14:59:37;11.20;99.90
57833;DHT22;43667;53.036;6.740;2023-02-15T15:04:48;11.10;99.90
57833;DHT22;43667;53.036;6.740;2023-02-15T15:07:42;11.10;99.90
57833;DHT22;43667;53.036;6.740;2023-02-15T15:12:43;11.00;99.90
57833;DHT22;43667;53.036;6.740;2023-02-15T15:15:44;11.00;99.90
57833;DHT22;43667;53.036;6.740;2023-02-15T15:18:43;11.00;99.90
57833;DHT22;43667;53.036;6.740;2023-02-15T15:21:09;10.80;99.90
57833;DHT22;43667;53.036;6.740;2023-02-15T15:23:42;10.80;99.90
57833;DHT22;43667;53.036;6.740;2023-02-15T15:26:22;10.70;99.90
57833;DHT22;43667;53.036;6.740;2023-02-15T15:31:37;10.70;99.90
57833;DHT22;43667;53.036;6.740;2023-02-15T15:34:10;10.60;99.90
57833;DHT22;43667;53.036;6.740;2023-02-15T15:45:45;10.20;99.90
57833;DHT22;43667;53.036;6.740;2023-02-15T15:48:35;10.20;99.90
57833;DHT22;43667;53.036;6.740;2023-02-15T15:51:31;10.10;99.90
57833;DHT22;43667;53.036;6.740;2023-02-15T15:53:58;10.10;99.90
57833;DHT22;43667;53.036;6.740;2023-02-15T15:56:29;9.90;99.90
57833;DHT22;43667;53.036;6.740;2023-02-15T15:59:07;9.90;99.90
57833;DHT22;43667;53.036;6.740;2023-02-15T16:01:41;9.90;99.90
57833;DHT22;43667;53.036;6.740;2023-02-15T16:04:12;9.80;99.90
57833;DHT22;43667;53.036;6.740;2023-02-15T16:06:39;9.70;99.90
57833;DHT22;43667;53.036;6.740;2023-02-15T16:11:42;9.60;99.90
57833;DHT22;43667;53.036;6.740;2023-02-15T16:14:25;9.50;99.90
57833;DHT22;43667;53.036;6.740;2023-02-15T16:16:55;9.50;99.90
57833;DHT22;43667;53.036;6.740;2023-02-15T16:19:26;9.30;99.90
57833;DHT22;43667;53.036;6.740;2023-02-15T16:21:54;9.20;99.90
57833;DHT22;43667;53.036;6.740;2023-02-15T16:27:39;9.10;99.90
57833;DHT22;43667;53.036;6.740;2023-02-15T16:30:23;9.00;99.90
57833;DHT22;43667;53.036;6.740;2023-02-15T16:32:52;8.90;99.90
57833;DHT22;43667;53.036;6.740;2023-02-15T16:35:19;8.80;99.90
57833;DHT22;43667;53.036;6.740;2023-02-15T16:37:46;8.70;99.90
57833;DHT22;43667;53.036;6.740;2023-02-15T16:43:05;8.60;99.90
57833;DHT22;43667;53.036;6.740;2023-02-15T16:45:33;8.50;99.90
57833;DHT22;43667;53.036;6.740;2023-02-15T16:48:00;8.40;99.90
57833;DHT22;43667;53.036;6.740;2023-02-15T16:50:33;8.30;99.90
57833;DHT22;43667;53.036;6.740;2023-02-15T16:53:00;8.20;99.90
57833;DHT22;43667;53.036;6.740;2023-02-15T16:55:30;8.10;99.90
57833;DHT22;43667;53.036;6.740;2023-02-15T16:58:01;8.00;99.90
57833;DHT22;43667;53.036;6.740;2023-02-15T17:00:31;8.00;99.90
57833;DHT22;43667;53.036;6.740;2023-02-15T17:03:03;7.90;99.90
57833;DHT22;43667;53.036;6.740;2023-02-15T17:05:59;7.80;99.90
57833;DHT22;43667;53.036;6.740;2023-02-15T17:08:34;7.80;99.90
57833;DHT22;43667;53.036;6.740;2023-02-15T17:11:20;7.70;99.90
57833;DHT22;43667;53.036;6.740;2023-02-15T17:16:44;7.50;99.90
57833;DHT22;43667;53.036;6.740;2023-02-15T17:19:26;7.40;99.90
57833;DHT22;43667;53.036;6.740;2023-02-15T17:21:56;7.40;99.90
57833;DHT22;43667;53.036;6.740;2023-02-15T17:24:35;7.30;99.90
57833;DHT22;43667;53.036;6.740;2023-02-15T17:27:16;7.20;99.90
57833;DHT22;43667;53.036;6.740;2023-02-15T17:29:46;7.20;99.90
57833;DHT22;43667;53.036;6.740;2023-02-15T17:32:17;7.10;99.90
57833;DHT22;43667;53.036;6.740;2023-02-15T17:34:50;7.10;99.90
57833;DHT22;43667;53.036;6.740;2023-02-15T17:40:19;7.00;99.90
57833;DHT22;43667;53.036;6.740;2023-02-15T17:42:45;7.00;99.90
57833;DHT22;43667;53.036;6.740;2023-02-15T17:45:11;6.90;99.90
57833;DHT22;43667;53.036;6.740;2023-02-15T17:47:36;6.80;99.90
57833;DHT22;43667;53.036;6.740;2023-02-15T17:50:05;6.80;99.90
57833;DHT22;43667;53.036;6.740;2023-02-15T17:52:31;6.70;99.90
57833;DHT22;43667;53.036;6.740;2023-02-15T17:54:57;6.70;99.90
57833;DHT22;43667;53.036;6.740;2023-02-15T17:57:41;6.70;99.90
57833;DHT22;43667;53.036;6.740;2023-02-15T18:00:12;6.70;99.90
57833;DHT22;43667;53.036;6.740;2023-02-15T18:02:56;6.70;99.90
57833;DHT22;43667;53.036;6.740;2023-02-15T18:05:40;6.60;99.90
57833;DHT22;43667;53.036;6.740;2023-02-15T18:08:27;6.60;99.90
57833;DHT22;43667;53.036;6.740;2023-02-15T18:11:11;6.60;99.90
57833;DHT22;43667;53.036;6.740;2023-02-15T18:13:55;6.60;99.90
57833;DHT22;43667;53.036;6.740;2023-02-15T18:16:27;6.60;99.90
57833;DHT22;43667;53.036;6.740;2023-02-15T18:18:55;6.50;99.90
57833;DHT22;43667;53.036;6.740;2023-02-15T18:21:21;6.50;99.90
57833;DHT22;43667;53.036;6.740;2023-02-15T18:23:46;6.40;99.90
57833;DHT22;43667;53.036;6.740;2023-02-15T18:26:20;6.40;99.90
57833;DHT22;43667;53.036;6.740;2023-02-15T18:28:46;6.40;99.90
57833;DHT22;43667;53.036;6.740;2023-02-15T18:31:12;6.30;99.90
57833;DHT22;43667;53.036;6.740;2023-02-15T18:33:42;6.30;99.90
57833;DHT22;43667;53.036;6.740;2023-02-15T18:36:14;6.30;99.90
57833;DHT22;43667;53.036;6.740;2023-02-15T18:38:41;6.30;99.90